Time;durP1;ratioP1;P1;durP2;ratioP2;P2;SDS_P1;SDS_P2;PMS_P1;PMS_P2;Temp;Humidity;BMP_temperature;BMP_pressure;BME280_temperature;BME280_humidity;BME280_pressure;Samples;Min_cycle;Max_cycle;Signal;HPM_P1;HPM_P2
2021/03/13 00:01:16;;;;;;;9.40;4.67;;;;;;;5.39;100.00;99270.78;4941116;28;20233;-71
2021/03/13 00:03:42;;;;;;;6.37;4.30;;;;;;;5.32;100.00;99297.19;4956549;28;20185;-71
2021/03/13 00:06:07;;;;;;;2.43;2.00;;;;;;;4.92;100.00;99312.53;4956854;28;20743;-71
2021/03/13 00:08:35;;;;;;;3.63;2.70;;;;;;;4.87;100.00;99333.25;4973902;28;20211;-70
2021/03/13 00:11:06;;;;;;;4.30;2.23;;;;;;;4.72;100.00;99350.16;4984013;28;20252;-71
2021/03/13 00:13:32;;;;;;;2.10;1.90;;;;;;;4.61;100.00;99331.59;4972449;28;20189;-70
2021/03/13 00:15:57;;;;;;;1.47;1.10;;;;;;;4.33;100.00;99329.38;4990009;28;20235;-71
2021/03/13 00:18:25;;;;;;;1.40;1.30;;;;;;;4.23;100.00;99337.41;4956905;28;20217;-71
2021/03/13 00:20:56;;;;;;;3.30;1.53;;;;;;;4.19;100.00;99326.66;4973328;28;20235;-71
2021/03/13 00:23:21;;;;;;;1.27;1.17;;;;;;;4.20;100.00;99316.44;4944192;28;20186;-70
2021/03/13 00:25:47;;;;;;;1.80;1.37;;;;;;;4.16;100.00;99314.56;4960175;28;20228;-71
2021/03/13 00:28:12;;;;;;;2.33;1.10;;;;;;;4.16;100.00;99313.72;4960007;28;20211;-70
2021/03/13 00:30:43;;;;;;;1.93;1.00;;;;;;;4.10;100.00;99312.09;4944141;28;20229;-71
2021/03/13 00:33:22;;;;;;;2.07;0.97;;;;;;;4.02;100.00;99309.94;4928120;28;20186;-72
2021/03/13 00:35:50;;;;;;;2.17;1.00;;;;;;;4.07;100.00;99309.97;4944074;28;20316;-71
2021/03/13 00:38:15;;;;;;;1.60;1.03;;;;;;;4.20;100.00;99306.78;4937126;28;20234;-72
2021/03/13 00:40:42;;;;;;;2.50;1.20;;;;;;;4.15;100.00;99304.06;4991610;28;20244;-71
2021/03/13 00:43:08;;;;;;;2.83;1.30;;;;;;;4.12;100.00;99307.28;4959657;28;20178;-70
2021/03/13 00:45:38;;;;;;;3.33;1.60;;;;;;;4.19;100.00;99297.09;4941242;28;20229;-70
2021/03/13 00:48:06;;;;;;;3.13;1.40;;;;;;;4.19;100.00;99294.41;4962737;28;20225;-71
2021/03/13 00:50:33;;;;;;;3.67;1.47;;;;;;;4.18;100.00;99296.31;4982315;28;20241;-70
2021/03/13 00:53:04;;;;;;;2.50;1.43;;;;;;;4.28;100.00;99289.06;4944067;28;20221;-70
2021/03/13 00:55:30;;;;;;;2.60;1.47;;;;;;;4.38;100.00;99305.22;4956037;28;20228;-70
2021/03/13 00:58:01;;;;;;;2.33;1.33;;;;;;;4.19;100.00;99294.41;4941719;28;20237;-71
2021/03/13 01:00:32;;;;;;;1.50;1.30;;;;;;;4.16;100.00;99294.94;4956198;28;20624;-70
2021/03/13 01:02:58;;;;;;;2.93;1.40;;;;;;;4.09;100.00;99284.44;4924396;28;20256;-70
2021/03/13 01:05:27;;;;;;;3.43;1.50;;;;;;;4.14;100.00;99276.41;4956669;28;20234;-71
2021/03/13 01:07:53;;;;;;;3.33;1.30;;;;;;;4.20;100.00;99270.78;4944216;28;20730;-71
2021/03/13 01:10:26;;;;;;;2.47;1.30;;;;;;;4.20;100.00;99269.19;4960616;28;20210;-70
2021/03/13 01:12:52;;;;;;;3.33;1.40;;;;;;;4.23;100.00;99264.88;4939902;28;20245;-70
2021/03/13 01:15:24;;;;;;;3.23;1.50;;;;;;;4.15;100.00;99255.72;4940163;28;20664;-70
2021/03/13 01:17:52;;;;;;;5.50;1.47;;;;;;;4.10;100.00;99253.03;4956797;28;20579;-71
2021/03/13 01:20:21;;;;;;;2.07;1.40;;;;;;;4.32;100.00;99257.91;4971955;28;20186;-70
2021/03/13 01:22:49;;;;;;;2.30;1.40;;;;;;;4.13;100.00;99242.56;4955623;28;20186;-70
2021/03/13 01:25:15;;;;;;;2.03;1.40;;;;;;;4.11;100.00;99249.28;4939755;28;20277;-70
2021/03/13 01:27:41;;;;;;;2.90;1.30;;;;;;;4.22;100.00;99252.50;4940245;28;20195;-71
2021/03/13 01:30:08;;;;;;;2.63;1.73;;;;;;;4.17;100.00;99240.94;4940180;28;20214;-72
2021/03/13 01:32:34;;;;;;;3.13;1.63;;;;;;;4.18;100.00;99244.47;4926655;28;20174;-70
2021/03/13 01:34:59;;;;;;;2.33;1.50;;;;;;;4.15;100.00;99231.56;4959499;28;20186;-70
2021/03/13 01:37:27;;;;;;;2.40;1.50;;;;;;;3.95;100.00;99237.66;4942746;28;20319;-70
2021/03/13 01:39:58;;;;;;;3.37;1.63;;;;;;;4.07;100.00;99232.88;4945760;28;20204;-70
2021/03/13 01:42:28;;;;;;;2.53;1.63;;;;;;;4.10;100.00;99242.28;4958396;28;20815;-71
2021/03/13 01:45:01;;;;;;;2.90;2.10;;;;;;;4.18;100.00;99233.72;4960583;28;20658;-71
2021/03/13 01:47:28;;;;;;;6.43;2.33;;;;;;;4.17;100.00;99237.47;4978316;28;20252;-70
2021/03/13 01:49:57;;;;;;;2.33;1.77;;;;;;;4.13;100.00;99225.63;5011206;28;20764;-72
2021/03/13 01:52:33;;;;;;;4.70;3.03;;;;;;;4.19;100.00;99221.88;4978183;28;20713;-70
2021/03/13 01:55:02;;;;;;;3.93;2.77;;;;;;;4.25;100.00;99224.31;4994435;28;20184;-70
2021/03/13 01:57:32;;;;;;;3.63;3.10;;;;;;;4.20;100.00;99219.72;4978148;28;20235;-70
2021/03/13 01:59:59;;;;;;;6.70;3.20;;;;;;;4.14;100.00;99211.94;4979030;28;20272;-71
2021/03/13 02:02:24;;;;;;;7.50;3.80;;;;;;;4.14;100.00;99211.13;4993032;28;20339;-71
2021/03/13 02:04:50;;;;;;;4.93;3.67;;;;;;;4.25;100.00;99213.56;4962340;28;20243;-70
2021/03/13 02:07:28;;;;;;;4.70;3.87;;;;;;;4.25;100.00;99209.00;4978410;28;20232;-72
2021/03/13 02:10:45;;;;;;;6.70;3.70;;;;;;;4.34;100.00;99201.19;4990055;28;20195;-72
2021/03/13 02:13:12;;;;;;;7.80;4.47;;;;;;;4.30;100.00;99195.59;4921057;29;20220;-70
2021/03/13 02:15:46;;;;;;;7.87;4.03;;;;;;;4.24;100.00;99188.56;4963454;28;20217;-71
2021/03/13 02:18:34;;;;;;;8.50;4.30;;;;;;;4.26;100.00;99188.31;4978905;28;20609;-71
2021/03/13 02:21:08;;;;;;;5.77;4.00;;;;;;;4.18;100.00;99190.75;4982282;28;20225;-70
2021/03/13 02:24:09;;;;;;;7.83;4.73;;;;;;;4.09;100.00;99189.66;4977672;28;20185;-70
2021/03/13 02:26:44;;;;;;;13.57;8.63;;;;;;;4.42;100.00;99179.19;4949826;28;20224;-70
2021/03/13 02:29:52;;;;;;;15.53;8.77;;;;;;;4.31;100.00;99180.25;5023022;28;20302;-70
2021/03/13 02:32:41;;;;;;;9.17;6.53;;;;;;;4.40;100.00;99168.72;4982649;28;20239;-70
2021/03/13 02:35:14;;;;;;;9.90;5.97;;;;;;;4.32;100.00;99166.56;5012229;28;20188;-70
2021/03/13 02:37:46;;;;;;;19.57;13.00;;;;;;;4.46;100.00;99170.31;4960079;28;20557;-70
2021/03/13 02:40:19;;;;;;;11.23;7.73;;;;;;;4.37;100.00;99153.09;4938965;28;20268;-70
2021/03/13 02:42:52;;;;;;;7.73;6.43;;;;;;;4.38;100.00;99144.00;4960422;28;20181;-71
2021/03/13 02:45:22;;;;;;;10.10;6.20;;;;;;;4.36;100.00;99142.63;4977289;28;20200;-72
2021/03/13 02:47:48;;;;;;;9.63;6.63;;;;;;;4.41;100.00;99142.63;4961506;28;20211;-70
2021/03/13 02:50:14;;;;;;;11.53;7.03;;;;;;;4.42;100.00;99142.38;4992626;28;20282;-70
2021/03/13 02:52:50;;;;;;;10.13;7.03;;;;;;;4.38;100.00;99138.63;4978169;28;20185;-70
2021/03/13 02:55:18;;;;;;;10.53;7.77;;;;;;;4.46;100.00;99140.75;4976525;28;20705;-70
2021/03/13 02:57:51;;;;;;;9.70;7.77;;;;;;;4.46;100.00;99137.25;4978127;28;20232;-70
2021/03/13 03:00:18;;;;;;;10.83;8.90;;;;;;;4.52;100.00;99139.66;4977407;28;20185;-70
2021/03/13 03:02:47;;;;;;;11.37;8.47;;;;;;;4.59;100.00;99134.81;4995907;28;20228;-72
2021/03/13 03:05:12;;;;;;;12.50;8.73;;;;;;;4.61;100.00;99127.28;4987344;28;20262;-71
2021/03/13 03:07:39;;;;;;;15.80;9.67;;;;;;;4.70;100.00;99121.09;4949480;28;20596;-70
2021/03/13 03:10:09;;;;;;;14.13;10.60;;;;;;;4.92;100.00;99123.47;4995755;28;20211;-72
2021/03/13 03:12:37;;;;;;;17.33;11.30;;;;;;;4.80;100.00;99114.88;4980113;28;20188;-70
2021/03/13 03:15:04;;;;;;;16.37;10.47;;;;;;;4.83;100.00;99108.97;4980132;28;20210;-70
2021/03/13 03:17:37;;;;;;;16.77;11.07;;;;;;;4.74;100.00;99099.84;4997608;28;20315;-70
2021/03/13 03:20:03;;;;;;;14.37;10.77;;;;;;;4.59;100.00;99094.50;4964118;28;20177;-71
2021/03/13 03:22:33;;;;;;;15.97;11.13;;;;;;;4.60;100.00;99096.13;4979102;28;20224;-70
2021/03/13 03:25:08;;;;;;;14.87;11.03;;;;;;;4.80;100.00;99091.50;4967231;28;20233;-72
2021/03/13 03:27:34;;;;;;;18.77;11.10;;;;;;;4.75;100.00;99086.13;4982809;28;20714;-70
2021/03/13 03:29:59;;;;;;;17.30;11.90;;;;;;;4.72;100.00;99077.81;4992855;28;20249;-70
2021/03/13 03:32:27;;;;;;;16.13;11.40;;;;;;;4.73;100.00;99082.13;4943617;28;20228;-71
2021/03/13 03:34:54;;;;;;;17.53;11.40;;;;;;;4.58;100.00;99074.09;4993442;28;20203;-70
2021/03/13 03:37:21;;;;;;;17.70;12.00;;;;;;;4.57;100.00;99067.09;4976692;28;20229;-71
2021/03/13 03:39:47;;;;;;;17.27;11.57;;;;;;;4.63;100.00;99066.00;4960694;28;20188;-72
2021/03/13 03:42:19;;;;;;;17.37;11.90;;;;;;;4.61;100.00;99068.16;4976258;28;20559;-71
2021/03/13 03:44:46;;;;;;;17.97;12.20;;;;;;;4.63;100.00;99066.00;4961044;28;20199;-70
2021/03/13 03:47:17;;;;;;;19.83;12.50;;;;;;;4.61;100.00;99062.78;4976791;28;20264;-70
2021/03/13 03:49:47;;;;;;;18.03;12.73;;;;;;;4.65;100.00;99061.16;4961791;28;20235;-70
2021/03/13 03:52:27;;;;;;;20.03;12.13;;;;;;;4.91;100.00;99062.66;4962049;28;20246;-70
2021/03/13 03:54:52;;;;;;;19.10;11.97;;;;;;;4.89;100.00;99049.53;4978437;28;20180;-70
2021/03/13 03:57:18;;;;;;;18.70;12.07;;;;;;;4.88;100.00;99041.72;4963857;28;20228;-71
2021/03/13 03:59:43;;;;;;;18.23;12.37;;;;;;;4.81;100.00;99054.66;4980390;28;20227;-70
2021/03/13 04:02:09;;;;;;;17.43;11.67;;;;;;;4.81;100.00;99049.28;4962881;28;20247;-71
2021/03/13 04:04:34;;;;;;;17.23;11.67;;;;;;;4.78;100.00;99041.75;4964606;28;20201;-71
2021/03/13 04:07:00;;;;;;;19.20;12.27;;;;;;;4.85;100.00;99034.19;4963626;28;20232;-70
2021/03/13 04:09:26;;;;;;;19.77;11.47;;;;;;;4.81;100.00;99033.94;4987340;28;20610;-72
2021/03/13 04:11:52;;;;;;;19.00;11.53;;;;;;;4.84;100.00;99024.53;4943684;28;20236;-70
2021/03/13 04:14:18;;;;;;;15.70;10.90;;;;;;;4.89;100.00;99028.00;4961212;28;20186;-71
2021/03/13 04:16:43;;;;;;;19.50;11.73;;;;;;;4.96;100.00;99016.94;4960231;28;20225;-70
2021/03/13 04:19:12;;;;;;;19.27;11.90;;;;;;;4.96;100.00;99006.19;4961037;28;20178;-70
2021/03/13 04:21:37;;;;;;;17.07;11.57;;;;;;;5.16;100.00;99007.69;4976323;28;20233;-70
2021/03/13 04:24:03;;;;;;;19.63;11.50;;;;;;;5.15;100.00;99006.09;4976432;28;20775;-71
2021/03/13 04:26:31;;;;;;;17.13;11.90;;;;;;;4.94;100.00;98997.59;4944297;28;20225;-71
2021/03/13 04:28:59;;;;;;;15.63;10.90;;;;;;;5.02;100.00;98990.56;4945505;28;20244;-70
2021/03/13 04:31:28;;;;;;;17.40;11.17;;;;;;;5.21;100.00;98988.81;4944198;28;20221;-71
2021/03/13 04:33:56;;;;;;;16.07;10.90;;;;;;;5.28;100.00;98975.88;4976478;28;20213;-70
2021/03/13 04:36:25;;;;;;;15.00;11.70;;;;;;;5.19;100.00;98985.59;4944014;28;20229;-71
2021/03/13 04:38:53;;;;;;;18.00;11.10;;;;;;;5.16;100.00;98974.59;4975415;28;20185;-70
2021/03/13 04:41:18;;;;;;;15.97;10.63;;;;;;;5.19;100.00;98974.84;4959817;28;20229;-71
2021/03/13 04:43:44;;;;;;;17.43;10.73;;;;;;;5.30;100.00;98962.94;4959602;28;20216;-71
2021/03/13 04:46:10;;;;;;;18.40;10.43;;;;;;;5.19;100.00;98964.09;4959891;28;20217;-71
2021/03/13 04:48:37;;;;;;;16.40;10.17;;;;;;;5.09;100.00;98958.78;4944553;28;20279;-71
2021/03/13 04:51:07;;;;;;;16.10;10.13;;;;;;;5.31;100.00;98953.78;4960124;28;20716;-71
2021/03/13 04:53:36;;;;;;;16.23;10.00;;;;;;;5.27;100.00;98936.56;4975357;28;20186;-70
2021/03/13 04:56:06;;;;;;;14.73;9.57;;;;;;;5.42;100.00;98931.91;4976497;28;20729;-71
2021/03/13 04:58:37;;;;;;;16.90;9.43;;;;;;;5.31;100.00;98934.97;4968457;28;20244;-71
2021/03/13 05:01:03;;;;;;;16.13;10.73;;;;;;;5.45;100.00;98923.25;4979556;28;20287;-70
2021/03/13 05:03:28;;;;;;;15.40;9.53;;;;;;;5.53;100.00;98917.28;4978858;28;20193;-70
2021/03/13 05:05:56;;;;;;;11.97;8.37;;;;;;;5.39;100.00;98910.91;4994810;28;20221;-70
2021/03/13 05:08:26;;;;;;;15.73;8.80;;;;;;;5.34;100.00;98912.84;4960270;28;20569;-71
2021/03/13 05:10:52;;;;;;;12.00;8.37;;;;;;;5.63;100.00;98906.41;4979046;28;20573;-70
2021/03/13 05:13:17;;;;;;;12.57;8.20;;;;;;;5.60;100.00;98900.78;4995041;28;20211;-71
2021/03/13 05:15:43;;;;;;;11.97;8.33;;;;;;;5.55;100.00;98890.03;5011104;28;20686;-71
2021/03/13 05:18:09;;;;;;;14.40;8.50;;;;;;;5.58;100.00;98884.91;4979628;28;20212;-70
2021/03/13 05:20:37;;;;;;;14.50;8.20;;;;;;;5.66;100.00;98880.78;4978860;28;20229;-71
2021/03/13 05:23:03;;;;;;;12.13;7.37;;;;;;;5.75;100.00;98869.97;4978548;28;20192;-70
2021/03/13 05:25:28;;;;;;;14.13;8.20;;;;;;;5.56;100.00;98878.22;5010684;28;20216;-71
2021/03/13 05:27:56;;;;;;;11.10;7.30;;;;;;;5.57;100.00;98864.47;4979396;28;20216;-71
2021/03/13 05:30:22;;;;;;;11.97;7.67;;;;;;;5.61;100.00;98870.09;5011119;28;20602;-71
2021/03/13 05:32:47;;;;;;;11.33;7.47;;;;;;;5.64;100.00;98856.03;4994490;28;20197;-71
2021/03/13 05:35:13;;;;;;;12.40;6.97;;;;;;;5.70;100.00;98852.25;4994487;28;20185;-70
2021/03/13 05:37:39;;;;;;;14.27;7.40;;;;;;;5.67;100.00;98847.41;4960447;28;20987;-71
2021/03/13 05:40:06;;;;;;;13.20;7.37;;;;;;;5.75;100.00;98840.34;4995035;28;20185;-70
2021/03/13 05:42:34;;;;;;;11.13;6.70;;;;;;;5.82;100.00;98834.59;5006863;28;20226;-70
2021/03/13 05:45:00;;;;;;;10.57;6.53;;;;;;;5.66;100.00;98840.41;4959839;28;20200;-71
2021/03/13 05:47:26;;;;;;;9.57;6.40;;;;;;;5.62;100.00;98825.91;4974885;28;20232;-71
2021/03/13 05:50:14;;;;;;;13.60;6.53;;;;;;;5.67;100.00;98820.47;4975505;28;20197;-70
2021/03/13 05:52:53;;;;;;;11.37;5.73;;;;;;;5.78;100.00;98823.59;4946805;28;20224;-70
2021/03/13 05:55:21;;;;;;;14.50;5.60;;;;;;;5.66;100.00;98813.47;4975599;28;20189;-71
2021/03/13 05:57:50;;;;;;;9.17;5.50;;;;;;;5.73;100.00;98808.59;4975439;28;20267;-70
2021/03/13 06:00:16;;;;;;;9.90;5.17;;;;;;;5.73;100.00;98797.81;4959179;28;20272;-70
2021/03/13 06:02:44;;;;;;;9.87;5.10;;;;;;;5.69;100.00;98786.78;4977972;28;20675;-71
2021/03/13 06:05:10;;;;;;;8.50;5.20;;;;;;;5.74;100.00;98783.28;4977543;28;20196;-71
2021/03/13 06:07:35;;;;;;;10.33;4.97;;;;;;;5.83;100.00;98775.06;5008942;28;20214;-70
2021/03/13 06:10:01;;;;;;;8.67;4.90;;;;;;;5.82;100.00;98767.28;4968187;28;20205;-71
2021/03/13 06:12:26;;;;;;;7.27;4.90;;;;;;;5.82;100.00;98757.31;4958828;28;20217;-72
2021/03/13 06:14:53;;;;;;;7.37;4.40;;;;;;;5.58;100.00;98749.50;4976861;28;20284;-72
2021/03/13 06:17:21;;;;;;;7.60;4.83;;;;;;;5.69;100.00;98738.31;4975222;28;20236;-71
2021/03/13 06:19:56;;;;;;;8.07;4.47;;;;;;;5.74;100.00;98740.19;4973851;28;20191;-70
2021/03/13 06:22:43;;;;;;;7.10;4.63;;;;;;;5.81;100.00;98730.69;4973281;28;20392;-71
2021/03/13 06:25:16;;;;;;;8.90;4.33;;;;;;;5.86;100.00;98717.94;4974331;28;20224;-71
2021/03/13 06:27:42;;;;;;;6.43;3.53;;;;;;;5.74;100.00;98713.28;4958653;28;20205;-71
2021/03/13 06:30:08;;;;;;;6.33;3.73;;;;;;;5.73;100.00;98703.56;4957560;28;20695;-70
2021/03/13 06:32:35;;;;;;;4.40;3.80;;;;;;;5.61;100.00;98708.56;4957602;28;20656;-70
2021/03/13 06:35:29;;;;;;;5.20;3.00;;;;;;;5.72;100.00;98693.88;4974631;28;20178;-70
2021/03/13 06:37:56;;;;;;;5.50;3.40;;;;;;;5.84;100.00;98687.00;4997849;28;20555;-70
2021/03/13 06:40:26;;;;;;;5.30;3.50;;;;;;;5.76;100.00;98677.66;4981522;28;20186;-71
2021/03/13 06:42:52;;;;;;;3.87;2.90;;;;;;;5.84;100.00;98670.84;4989722;28;20257;-71
2021/03/13 06:45:22;;;;;;;5.60;3.00;;;;;;;5.90;100.00;98667.78;4991267;28;20196;-71
2021/03/13 06:47:48;;;;;;;4.80;2.80;;;;;;;5.87;100.00;98659.50;4958712;28;20240;-71
2021/03/13 06:50:16;;;;;;;5.30;3.00;;;;;;;5.86;100.00;98647.94;4973670;28;20216;-71
2021/03/13 06:52:44;;;;;;;4.23;2.80;;;;;;;5.81;100.00;98642.59;4957507;28;20193;-71
2021/03/13 06:55:20;;;;;;;3.70;2.40;;;;;;;5.82;100.00;98635.31;4957541;28;20178;-70
2021/03/13 06:57:47;;;;;;;2.97;2.40;;;;;;;5.85;100.00;98638.22;4974278;28;20208;-71
2021/03/13 07:00:34;;;;;;;4.23;2.50;;;;;;;5.85;100.00;98624.75;4973846;28;20222;-71
2021/03/13 07:03:07;;;;;;;2.97;1.93;;;;;;;5.74;100.00;98628.69;4957982;28;20726;-70
2021/03/13 07:05:33;;;;;;;2.97;2.10;;;;;;;5.71;100.00;98619.56;4977448;28;20244;-72
2021/03/13 07:07:59;;;;;;;2.87;2.23;;;;;;;5.77;100.00;98603.09;4971874;28;20211;-70
2021/03/13 07:10:27;;;;;;;2.10;1.80;;;;;;;5.73;100.00;98599.34;4990084;28;20208;-71
2021/03/13 07:12:54;;;;;;;2.30;2.10;;;;;;;5.89;100.00;98593.47;4976790;28;20193;-72
2021/03/13 07:15:23;;;;;;;2.03;1.87;;;;;;;5.80;100.00;98584.44;4961073;28;20211;-71
2021/03/13 07:17:52;;;;;;;3.00;1.93;;;;;;;5.72;100.00;98586.19;4962470;28;20209;-71
2021/03/13 07:20:19;;;;;;;2.77;1.93;;;;;;;5.78;100.00;98575.06;4976843;28;20647;-71
2021/03/13 07:22:45;;;;;;;3.20;2.20;;;;;;;5.89;100.00;98571.91;4944594;28;20185;-70
2021/03/13 07:25:16;;;;;;;2.50;1.93;;;;;;;5.83;100.00;98566.91;4977021;28;20184;-70
2021/03/13 07:27:44;;;;;;;3.33;1.93;;;;;;;5.84;100.00;98553.16;4962460;28;20216;-71
2021/03/13 07:30:12;;;;;;;2.23;2.00;;;;;;;6.00;100.00;98541.03;4974247;28;20623;-70
2021/03/13 07:32:40;;;;;;;1.90;1.80;;;;;;;5.87;100.00;98546.38;4975817;28;20185;-71
2021/03/13 07:35:09;;;;;;;3.20;2.00;;;;;;;5.98;100.00;98527.06;4969845;28;20583;-71
2021/03/13 07:37:34;;;;;;;2.43;2.10;;;;;;;5.89;100.00;98523.44;4987465;28;20274;-70
2021/03/13 07:40:06;;;;;;;2.20;2.00;;;;;;;5.94;100.00;98526.03;4958191;28;20185;-71
2021/03/13 07:42:31;;;;;;;2.00;1.80;;;;;;;5.93;100.00;98513.66;4945118;28;20216;-71
2021/03/13 07:44:57;;;;;;;2.87;2.03;;;;;;;5.86;100.00;98518.66;4984892;28;20180;-71
2021/03/13 07:47:22;;;;;;;2.83;1.70;;;;;;;5.86;100.00;98513.25;4999995;28;20220;-72
2021/03/13 07:49:51;;;;;;;2.17;1.90;;;;;;;5.93;100.00;98499.41;4963581;28;20232;-70
2021/03/13 07:52:17;;;;;;;3.33;1.90;;;;;;;6.06;100.00;98485.97;4982863;28;20650;-71
2021/03/13 07:54:51;;;;;;;1.97;1.80;;;;;;;5.95;100.00;98483.75;4986941;28;20586;-71
2021/03/13 07:57:22;;;;;;;3.83;2.07;;;;;;;5.95;100.00;98476.47;4975229;28;20220;-71
2021/03/13 07:59:52;;;;;;;2.63;1.90;;;;;;;6.01;100.00;98469.91;4931193;28;20193;-71
2021/03/13 08:02:30;;;;;;;3.90;2.17;;;;;;;6.10;100.00;98460.03;4968724;28;20217;-70
2021/03/13 08:04:59;;;;;;;2.00;1.90;;;;;;;6.07;100.00;98447.16;4989273;28;20290;-71
2021/03/13 08:07:29;;;;;;;4.20;3.00;;;;;;;6.03;100.00;98453.44;4968161;28;20221;-70
2021/03/13 08:09:57;;;;;;;4.17;3.47;;;;;;;6.20;100.00;98438.28;4982248;28;20201;-69
2021/03/13 08:12:41;;;;;;;2.33;2.13;;;;;;;6.17;100.00;98433.50;4956329;28;20308;-71
2021/03/13 08:15:13;;;;;;;2.80;2.60;;;;;;;6.06;100.00;98415.91;4988857;28;20588;-70
2021/03/13 08:17:40;;;;;;;3.50;2.30;;;;;;;6.17;100.00;98407.38;4970917;28;20216;-69
2021/03/13 08:20:11;;;;;;;2.53;2.27;;;;;;;6.13;100.00;98410.94;4971443;28;20261;-69
2021/03/13 08:22:37;;;;;;;2.97;2.30;;;;;;;6.16;100.00;98391.50;4957822;28;20197;-70
2021/03/13 08:25:02;;;;;;;2.10;1.90;;;;;;;6.21;100.00;98391.41;4991966;28;20181;-70
2021/03/13 08:27:34;;;;;;;2.63;2.00;;;;;;;6.32;100.00;98384.72;4976231;28;20266;-70
2021/03/13 08:30:09;;;;;;;2.10;1.80;;;;;;;6.34;100.00;98375.22;4993003;28;20789;-71
2021/03/13 08:32:58;;;;;;;2.17;1.77;;;;;;;6.38;100.00;98364.63;4992758;28;20225;-70
2021/03/13 08:35:43;;;;;;;1.60;1.50;;;;;;;6.40;100.00;98351.66;4995252;28;20698;-70
2021/03/13 08:38:09;;;;;;;1.93;1.70;;;;;;;6.37;100.00;98357.63;4994409;28;20216;-70
2021/03/13 08:40:43;;;;;;;1.43;1.33;;;;;;;6.44;100.00;98349.94;4970986;28;20255;-70
2021/03/13 08:43:37;;;;;;;1.30;1.20;;;;;;;6.43;100.00;98345.63;4982118;28;20189;-71
2021/03/13 08:46:03;;;;;;;1.63;1.30;;;;;;;6.33;100.00;98329.69;5033015;28;20224;-71
2021/03/13 08:49:05;;;;;;;1.40;1.30;;;;;;;6.38;100.00;98332.28;5016108;28;20287;-71
2021/03/13 08:51:30;;;;;;;1.13;1.10;;;;;;;6.41;100.00;98331.66;4971804;28;20225;-70
2021/03/13 08:53:56;;;;;;;1.40;1.30;;;;;;;6.53;100.00;98330.06;5002520;28;20554;-71
2021/03/13 08:56:40;;;;;;;0.93;0.93;;;;;;;6.52;100.00;98323.88;4998977;28;20259;-71
2021/03/13 08:59:15;;;;;;;1.30;1.20;;;;;;;6.58;100.00;98317.25;5033511;28;20271;-71
2021/03/13 09:01:46;;;;;;;1.13;1.00;;;;;;;6.61;100.00;98316.66;4998089;28;20269;-72
2021/03/13 09:04:12;;;;;;;2.70;1.23;;;;;;;6.56;100.00;98313.28;4985963;28;20224;-73
2021/03/13 09:06:41;;;;;;;1.50;1.00;;;;;;;6.76;100.00;98305.53;4960008;28;20315;-73
2021/03/13 09:09:11;;;;;;;1.00;1.00;;;;;;;6.82;100.00;98295.44;4973773;28;20205;-70
2021/03/13 09:11:41;;;;;;;11.07;7.97;;;;;;;6.95;100.00;98300.75;4970110;28;20225;-74
2021/03/13 09:14:06;;;;;;;0.90;0.90;;;;;;;6.74;100.00;98299.66;4980499;28;20199;-71
2021/03/13 09:16:39;;;;;;;1.47;0.90;;;;;;;6.99;100.00;98301.72;4990623;28;20255;-70
2021/03/13 09:19:12;;;;;;;0.60;0.60;;;;;;;6.85;100.00;98284.00;4990618;28;20201;-69
2021/03/13 09:21:46;;;;;;;0.90;0.80;;;;;;;6.88;100.00;98286.88;4966942;28;20218;-71
2021/03/13 09:24:22;;;;;;;1.27;0.80;;;;;;;7.05;100.00;98290.53;4960147;28;20282;-70
2021/03/13 09:26:55;;;;;;;0.70;0.70;;;;;;;6.98;100.00;98289.38;4943047;28;20225;-70
2021/03/13 09:29:30;;;;;;;0.83;0.80;;;;;;;7.06;100.00;98294.00;4959653;28;20240;-70
2021/03/13 09:31:57;;;;;;;0.57;0.57;;;;;;;7.01;100.00;98273.38;4974604;28;20654;-68
2021/03/13 09:34:23;;;;;;;0.60;0.60;;;;;;;7.12;100.00;98279.28;4959416;28;20321;-69
2021/03/13 09:36:49;;;;;;;0.40;0.40;;;;;;;7.12;100.00;98279.28;4958980;28;20277;-70
2021/03/13 09:39:23;;;;;;;0.40;0.40;;;;;;;7.07;100.00;98325.28;4969472;28;20193;-70
2021/03/13 09:42:12;;;;;;;0.80;0.80;;;;;;;7.00;100.00;98362.69;4974208;28;20228;-71
2021/03/13 09:44:43;;;;;;;1.07;1.03;;;;;;;6.63;100.00;98368.41;4963878;28;20204;-70
2021/03/13 09:47:10;;;;;;;1.30;0.73;;;;;;;6.37;100.00;98357.63;4974759;28;20243;-70
2021/03/13 09:49:35;;;;;;;1.37;0.60;;;;;;;6.35;100.00;98368.72;4959070;28;20209;-70
2021/03/13 09:52:01;;;;;;;0.50;0.40;;;;;;;6.33;100.00;98364.72;4973552;28;20236;-70
2021/03/13 09:54:26;;;;;;;2.33;1.17;;;;;;;6.25;100.00;98338.50;4974739;28;20181;-70
2021/03/13 09:56:52;;;;;;;1.57;0.67;;;;;;;6.35;100.00;98335.56;4958410;28;20225;-70
2021/03/13 09:59:22;;;;;;;1.63;0.50;;;;;;;6.36;100.00;98340.69;4958847;28;20192;-70
2021/03/13 10:01:48;;;;;;;0.93;0.40;;;;;;;6.58;100.00;98346.94;4957646;28;20316;-72
2021/03/13 10:04:16;;;;;;;2.00;0.50;;;;;;;6.52;100.00;98334.66;4959028;28;20188;-70
2021/03/13 10:06:42;;;;;;;1.67;0.50;;;;;;;6.53;100.00;98341.63;4991532;28;20276;-70
2021/03/13 10:09:11;;;;;;;1.70;0.60;;;;;;;6.54;100.00;98348.63;4980516;28;20637;-71
2021/03/13 10:11:41;;;;;;;1.00;0.50;;;;;;;6.63;100.00;98337.91;4961195;28;20228;-71
2021/03/13 10:14:15;;;;;;;2.57;0.80;;;;;;;6.52;100.00;98344.66;4978272;28;20185;-70
2021/03/13 10:16:46;;;;;;;2.50;0.60;;;;;;;6.67;100.00;98347.81;5001579;28;20323;-70
2021/03/13 10:19:37;;;;;;;5.87;3.27;;;;;;;6.71;100.00;98338.00;4961750;28;20212;-69
2021/03/13 10:22:10;;;;;;;7.80;3.13;;;;;;;6.82;100.00;98328.59;4992962;28;20224;-71
2021/03/13 10:24:53;;;;;;;4.37;1.40;;;;;;;6.99;100.00;98336.81;4994070;28;20292;-70
2021/03/13 10:27:27;;;;;;;3.27;1.00;;;;;;;7.19;100.00;98347.13;5009501;28;20233;-70
2021/03/13 10:29:59;;;;;;;4.03;1.60;;;;;;;7.07;100.00;98336.06;4994224;28;20212;-70
2021/03/13 10:32:30;;;;;;;3.83;2.07;;;;;;;7.09;100.00;98350.09;5008664;28;20224;-71
2021/03/13 10:35:11;;;;;;;3.40;1.13;;;;;;;7.36;100.00;98339.94;4977834;28;20661;-72
2021/03/13 10:37:38;;;;;;;4.60;1.27;;;;;;;7.41;100.00;98332.50;4992831;28;20247;-71
2021/03/13 10:40:04;;;;;;;1.73;1.00;;;;;;;7.43;100.00;98324.88;4982176;28;20264;-70
2021/03/13 10:42:34;;;;;;;4.80;2.17;;;;;;;7.56;100.00;98323.22;4989123;28;20287;-71
2021/03/13 10:45:32;;;;;;;8.37;6.80;;;;;;;7.42;100.00;98333.31;4960092;28;20231;-71
2021/03/13 10:48:06;;;;;;;2.87;1.80;;;;;;;7.34;100.00;98326.75;4944674;28;20228;-72
2021/03/13 10:50:34;;;;;;;3.80;1.47;;;;;;;7.39;100.00;98334.72;4960718;28;20224;-69
2021/03/13 10:52:59;;;;;;;2.97;2.00;;;;;;;7.38;100.00;98322.34;4993179;28;20181;-73
2021/03/13 10:55:38;;;;;;;2.07;1.43;;;;;;;7.35;100.00;98312.16;4986291;28;20227;-70
2021/03/13 10:58:06;;;;;;;3.57;1.07;;;;;;;7.34;100.00;98329.47;4978341;28;20644;-69
2021/03/13 11:00:31;;;;;;;2.17;0.90;;;;;;;7.36;100.00;98319.16;4952798;28;20205;-69
2021/03/13 11:02:57;;;;;;;1.80;0.90;;;;;;;7.28;100.00;98305.59;4981639;28;20193;-70
2021/03/13 11:05:22;;;;;;;1.90;0.90;;;;;;;7.31;100.00;98305.78;4966060;28;20750;-71
2021/03/13 11:07:53;;;;;;;3.97;1.00;;;;;;;7.30;100.00;98296.06;4952546;28;20197;-69
2021/03/13 11:10:21;;;;;;;2.70;1.20;;;;;;;7.36;100.00;98297.56;4957519;28;20210;-69
2021/03/13 11:12:46;;;;;;;6.30;3.10;;;;;;;7.39;100.00;98291.53;4942354;28;20239;-70
2021/03/13 11:15:14;;;;;;;5.10;2.70;;;;;;;7.62;100.00;98305.78;4943835;28;20194;-70
2021/03/13 11:17:40;;;;;;;3.30;1.83;;;;;;;7.92;100.00;98300.38;4968356;28;20213;-71
2021/03/13 11:20:06;;;;;;;0.80;0.73;;;;;;;7.94;100.00;98293.53;4965086;28;20673;-70
2021/03/13 11:22:32;;;;;;;2.57;1.10;;;;;;;8.29;100.00;98284.44;4954365;28;20723;-70
2021/03/13 11:24:57;;;;;;;3.03;1.67;;;;;;;8.75;100.00;98277.31;4935108;28;20592;-71
2021/03/13 11:27:23;;;;;;;4.27;1.00;;;;;;;8.62;100.00;98275.56;4960146;28;20221;-70
2021/03/13 11:29:58;;;;;;;3.70;1.00;;;;;;;8.73;100.00;98263.31;4968544;28;20214;-71
2021/03/13 11:32:23;;;;;;;1.90;1.10;;;;;;;8.93;100.00;98269.66;4951894;28;20217;-69
2021/03/13 11:34:49;;;;;;;3.37;1.23;;;;;;;9.58;100.00;98271.78;4950132;28;20239;-70
2021/03/13 11:37:14;;;;;;;2.57;1.13;;;;;;;9.55;100.00;98270.84;4988627;28;20225;-70
2021/03/13 11:39:42;;;;;;;3.30;1.23;;;;;;;9.77;100.00;98264.06;4954049;28;20601;-71
2021/03/13 11:42:08;;;;;;;3.23;1.40;;;;;;;9.85;100.00;98260.50;4936474;28;20225;-71